createdAt,value
2018-02-22T00:00:59.296Z,994.47
2018-02-22T00:01:59.600Z,994.46
2018-02-22T00:02:59.919Z,994.49
2018-02-22T00:04:00.202Z,994.45
2018-02-22T00:05:00.506Z,994.42
2018-02-22T00:06:00.811Z,994.44
2018-02-22T00:07:01.116Z,994.40
2018-02-22T00:08:01.420Z,994.40
2018-02-22T00:09:01.726Z,994.37
2018-02-22T00:10:02.040Z,994.37
2018-02-22T00:11:02.332Z,994.37
2018-02-22T00:12:02.636Z,994.36
2018-02-22T00:13:02.941Z,994.33
2018-02-22T00:14:03.246Z,994.33
2018-02-22T00:15:03.551Z,994.35
2018-02-22T00:16:03.854Z,994.30
2018-02-22T00:17:04.160Z,994.29
2018-02-22T00:18:04.464Z,994.29
2018-02-22T00:19:04.770Z,994.29
2018-02-22T00:20:05.082Z,994.30
2018-02-22T00:21:05.389Z,994.32
2018-02-22T00:22:05.693Z,994.27
2018-02-22T00:23:05.996Z,994.31
2018-02-22T00:24:06.297Z,994.30
2018-02-22T00:25:06.602Z,994.30
2018-02-22T00:26:06.909Z,994.32
2018-02-22T00:27:07.214Z,994.28
2018-02-22T00:28:07.518Z,994.29
2018-02-22T00:29:07.823Z,994.31
2018-02-22T00:30:08.164Z,994.30
2018-02-22T00:31:08.434Z,994.31
2018-02-22T00:32:08.734Z,994.30
2018-02-22T00:33:09.040Z,994.29
2018-02-22T00:34:09.345Z,994.29
2018-02-22T00:35:09.649Z,994.28
2018-02-22T00:36:09.947Z,994.29
2018-02-22T00:37:10.255Z,994.22
2018-02-22T00:38:10.559Z,994.26
2018-02-22T00:39:10.859Z,994.24
2018-02-22T00:40:11.164Z,994.29
2018-02-22T00:41:11.469Z,994.25
2018-02-22T00:42:11.775Z,994.24
2018-02-22T00:43:12.078Z,994.25
2018-02-22T00:44:12.384Z,994.21
2018-02-22T00:45:12.687Z,994.22
2018-02-22T00:46:13.000Z,994.20
2018-02-22T00:47:13.297Z,994.25
2018-02-22T00:48:13.594Z,994.23
2018-02-22T00:49:13.901Z,994.26
2018-02-22T00:50:14.204Z,994.25
2018-02-22T00:51:14.503Z,994.24
2018-02-22T00:52:14.804Z,994.23
2018-02-22T00:53:15.108Z,994.27
2018-02-22T00:54:15.413Z,994.23
2018-02-22T00:55:15.719Z,994.25
2018-02-22T00:56:16.025Z,994.20
2018-02-22T00:57:16.326Z,994.24
2018-02-22T00:58:16.632Z,994.24
2018-02-22T00:59:16.937Z,994.22
2018-02-22T01:00:17.245Z,994.23
2018-02-22T01:01:17.540Z,994.20
2018-02-22T01:02:17.848Z,994.24
2018-02-22T01:03:18.153Z,994.20
2018-02-22T01:04:18.458Z,994.16
2018-02-22T01:05:18.764Z,994.19
2018-02-22T01:06:19.066Z,994.19
2018-02-22T01:07:19.379Z,994.16
2018-02-22T01:08:19.676Z,994.14
2018-02-22T01:09:19.981Z,994.16
2018-02-22T01:10:20.286Z,994.14
2018-02-22T01:11:20.591Z,994.13
2018-02-22T01:12:20.902Z,994.16
2018-02-22T01:13:21.219Z,994.14
2018-02-22T01:14:21.509Z,994.18
2018-02-22T01:15:21.813Z,994.15
2018-02-22T01:16:22.118Z,994.19
2018-02-22T01:17:22.423Z,994.15
2018-02-22T01:18:22.726Z,994.16
2018-02-22T01:19:23.032Z,994.11
2018-02-22T01:20:23.336Z,994.14
2018-02-22T01:21:23.642Z,994.13
2018-02-22T01:22:23.950Z,994.17
2018-02-22T01:23:24.250Z,994.14
2018-02-22T01:24:24.558Z,994.12
2018-02-22T01:25:24.848Z,994.16
2018-02-22T01:26:25.153Z,994.14
2018-02-22T01:27:25.462Z,994.17
2018-02-22T01:28:26.425Z,994.18
2018-02-22T01:29:26.060Z,994.16
2018-02-22T01:30:26.364Z,994.18
2018-02-22T01:31:26.672Z,994.16
2018-02-22T01:32:26.973Z,994.21
2018-02-22T01:33:27.278Z,994.15
2018-02-22T01:34:27.593Z,994.21
2018-02-22T01:35:27.885Z,994.21
2018-02-22T01:36:28.190Z,994.20
2018-02-22T01:37:28.495Z,994.19
2018-02-22T01:38:28.799Z,994.19
2018-02-22T01:39:29.112Z,994.17
2018-02-22T01:40:29.404Z,994.19
2018-02-22T01:41:29.696Z,994.17
2018-02-22T01:42:30.012Z,994.17
2018-02-22T01:43:30.317Z,994.19
2018-02-22T01:44:30.615Z,994.17
2018-02-22T01:45:30.915Z,994.16
2018-02-22T01:46:31.933Z,994.16
2018-02-22T01:47:31.514Z,994.17
2018-02-22T01:48:31.818Z,994.18
2018-02-22T01:49:32.118Z,994.14
2018-02-22T01:50:32.425Z,994.16
2018-02-22T01:51:32.736Z,994.16
2018-02-22T01:52:33.041Z,994.17
2018-02-22T01:53:33.345Z,994.13
2018-02-22T01:54:33.653Z,994.16
2018-02-22T01:55:33.950Z,994.14
2018-02-22T01:56:34.261Z,994.18
2018-02-22T01:57:34.565Z,994.17
2018-02-22T01:58:34.869Z,994.15
2018-02-22T01:59:35.180Z,994.19
2018-02-22T02:00:35.475Z,994.18
2018-02-22T02:01:35.780Z,994.18
2018-02-22T02:02:36.085Z,994.16
2018-02-22T02:03:36.390Z,994.17
2018-02-22T02:04:36.694Z,994.16
2018-02-22T02:05:37.004Z,994.14
2018-02-22T02:06:37.294Z,994.11
2018-02-22T02:07:37.598Z,994.14
2018-02-22T02:08:37.903Z,994.10
2018-02-22T02:09:38.208Z,994.10
2018-02-22T02:10:38.514Z,994.09
2018-02-22T02:11:38.818Z,994.08
2018-02-22T02:12:39.123Z,994.06
2018-02-22T02:16:11.372Z,994.02
2018-02-22T02:17:11.684Z,994.01
2018-02-22T02:18:11.997Z,994.01
2018-02-22T02:19:39.911Z,994.03
2018-02-22T02:20:12.663Z,994.01
2018-02-22T02:21:12.974Z,994.01
2018-02-22T02:22:13.285Z,994.01
2018-02-22T02:23:13.583Z,993.99
2018-02-22T02:24:13.888Z,993.98
2018-02-22T02:25:14.191Z,993.94
2018-02-22T02:26:14.502Z,993.92
2018-02-22T02:27:14.794Z,993.90
2018-02-22T02:28:15.099Z,993.92
2018-02-22T02:29:15.403Z,993.92
2018-02-22T02:30:15.713Z,993.92
2018-02-22T02:31:16.012Z,993.91
2018-02-22T02:32:16.317Z,993.90
2018-02-22T02:33:16.620Z,993.83
2018-02-22T02:34:16.925Z,993.86
2018-02-22T02:35:17.232Z,993.89
2018-02-22T02:36:17.536Z,993.90
2018-02-22T02:37:17.840Z,993.87
2018-02-22T02:38:18.145Z,993.89
2018-02-22T02:39:18.455Z,993.91
2018-02-22T02:40:18.760Z,993.90
2018-02-22T02:41:19.054Z,993.88
2018-02-22T02:42:19.368Z,993.89
2018-02-22T02:43:19.669Z,993.88
2018-02-22T02:44:19.966Z,993.89
2018-02-22T02:45:20.278Z,993.90
2018-02-22T02:46:20.581Z,993.85
2018-02-22T02:47:20.885Z,993.85
2018-02-22T02:48:21.188Z,993.84
2018-02-22T02:49:21.493Z,993.84
2018-02-22T02:50:21.796Z,993.84
2018-02-22T02:51:22.101Z,993.80
2018-02-22T02:52:22.407Z,993.83
2018-02-22T02:53:22.710Z,993.87
2018-02-22T02:54:23.014Z,993.80
2018-02-22T02:55:23.319Z,993.83
2018-02-22T02:56:23.625Z,993.85
2018-02-22T02:57:23.929Z,993.81
2018-02-22T02:58:24.235Z,993.82
2018-02-22T02:59:24.539Z,993.82
2018-02-22T03:00:24.843Z,993.82
2018-02-22T03:01:25.148Z,993.83
2018-02-22T03:02:25.453Z,993.85
2018-02-22T03:03:25.766Z,993.83
2018-02-22T03:04:26.071Z,993.86
2018-02-22T03:05:26.375Z,993.80
2018-02-22T03:06:26.680Z,993.86
2018-02-22T03:07:26.984Z,993.82
2018-02-22T03:08:27.288Z,993.85
2018-02-22T03:09:27.595Z,993.87
2018-02-22T03:10:27.901Z,993.85
2018-02-22T03:11:28.205Z,993.83
2018-02-22T03:12:28.512Z,993.84
2018-02-22T03:13:28.812Z,993.83
2018-02-22T03:14:29.110Z,993.86
2018-02-22T03:15:29.406Z,993.85
2018-02-22T03:16:29.700Z,993.87
2018-02-22T03:17:30.002Z,993.86
2018-02-22T03:18:30.305Z,993.86
2018-02-22T03:19:30.610Z,993.88
2018-02-22T03:20:30.916Z,993.89
2018-02-22T03:21:31.220Z,993.91
2018-02-22T03:22:31.528Z,993.89
2018-02-22T03:23:31.829Z,993.88
2018-02-22T03:24:32.133Z,993.86
2018-02-22T03:25:32.445Z,993.85
2018-02-22T03:26:32.727Z,993.83
2018-02-22T03:27:33.028Z,993.86
2018-02-22T03:28:33.335Z,993.87
2018-02-22T03:29:33.640Z,993.86
2018-02-22T03:30:33.949Z,993.86
2018-02-22T03:31:34.247Z,993.85
2018-02-22T03:32:34.551Z,993.84
2018-02-22T03:33:34.856Z,993.82
2018-02-22T03:34:35.863Z,993.83
2018-02-22T03:35:35.446Z,993.83
2018-02-22T03:36:35.751Z,993.81
2018-02-22T03:37:36.062Z,993.81
2018-02-22T03:38:36.352Z,993.79
2018-02-22T03:39:36.656Z,993.82
2018-02-22T03:40:36.962Z,993.83
2018-02-22T03:41:37.266Z,993.83
2018-02-22T03:42:37.570Z,993.80
2018-02-22T03:43:37.866Z,993.79
2018-02-22T03:44:38.162Z,993.84
2018-02-22T03:45:38.469Z,993.79
2018-02-22T03:46:38.771Z,993.82
2018-02-22T03:47:39.069Z,993.80
2018-02-22T03:48:39.370Z,993.82
2018-02-22T03:49:39.678Z,993.75
2018-02-22T03:50:39.982Z,993.78
2018-02-22T03:51:40.287Z,993.76
2018-02-22T03:52:40.576Z,993.79
2018-02-22T03:53:40.894Z,993.77
2018-02-22T03:54:41.198Z,993.79
2018-02-22T03:55:41.507Z,993.77
2018-02-22T03:56:41.808Z,993.80
2018-02-22T03:57:42.113Z,993.78
2018-02-22T03:58:42.417Z,993.79
2018-02-22T03:59:42.723Z,993.76
2018-02-22T04:00:43.031Z,993.80
2018-02-22T04:01:43.342Z,993.81
2018-02-22T04:02:44.870Z,993.80
2018-02-22T04:03:43.937Z,993.83
2018-02-22T04:04:44.241Z,993.84
2018-02-22T04:05:44.549Z,993.79
2018-02-22T04:06:44.848Z,993.82
2018-02-22T04:07:45.153Z,993.88
2018-02-22T04:08:45.458Z,993.86
2018-02-22T04:09:45.754Z,993.89
2018-02-22T04:10:46.053Z,993.88
2018-02-22T04:11:46.358Z,993.90
2018-02-22T04:12:46.663Z,993.93
2018-02-22T04:13:46.965Z,993.91
2018-02-22T04:14:47.273Z,993.92
2018-02-22T04:15:47.577Z,993.90
2018-02-22T04:16:47.882Z,993.93
2018-02-22T04:17:48.187Z,993.90
2018-02-22T04:18:48.492Z,993.91
2018-02-22T04:19:48.799Z,993.96
2018-02-22T04:20:49.104Z,993.94
2018-02-22T04:21:49.409Z,993.93
2018-02-22T04:22:49.713Z,993.92
2018-02-22T04:23:50.019Z,993.92
2018-02-22T04:24:50.323Z,993.90
2018-02-22T04:25:50.630Z,993.85
2018-02-22T04:26:50.933Z,993.89
2018-02-22T04:27:51.240Z,993.89
2018-02-22T04:28:51.541Z,993.87
2018-02-22T04:29:51.849Z,993.93
2018-02-22T04:30:52.150Z,993.94
2018-02-22T04:31:52.458Z,993.96
2018-02-22T04:32:52.760Z,993.92
2018-02-22T04:33:53.065Z,993.91
2018-02-22T04:34:53.370Z,993.94
2018-02-22T04:35:53.678Z,993.94
2018-02-22T04:36:53.978Z,993.93
2018-02-22T04:37:54.279Z,993.93
2018-02-22T04:38:54.584Z,993.97
2018-02-22T04:39:54.899Z,993.97
2018-02-22T04:40:55.190Z,993.98
2018-02-22T04:41:55.494Z,993.95
2018-02-22T04:42:55.800Z,993.94
2018-02-22T04:43:56.102Z,993.95
2018-02-22T04:44:56.407Z,993.99
2018-02-22T04:45:56.715Z,993.98
2018-02-22T04:46:57.005Z,993.95
2018-02-22T04:47:57.309Z,993.99
2018-02-22T04:48:57.614Z,993.99
2018-02-22T04:49:57.920Z,993.98
2018-02-22T04:50:58.986Z,993.96
2018-02-22T04:51:58.591Z,993.97
2018-02-22T04:52:58.895Z,993.98
2018-02-22T04:53:59.201Z,993.97
2018-02-22T04:54:59.505Z,993.95
2018-02-22T04:55:59.810Z,993.98
2018-02-22T04:57:00.116Z,993.93
2018-02-22T04:58:00.420Z,993.95
2018-02-22T04:59:00.726Z,993.96
2018-02-22T05:00:01.030Z,993.90
2018-02-22T05:01:01.335Z,993.91
2018-02-22T05:02:01.647Z,993.94
2018-02-22T05:03:01.941Z,993.91
2018-02-22T05:04:02.247Z,993.92
2018-02-22T05:05:02.552Z,993.95
2018-02-22T05:06:02.856Z,993.87
2018-02-22T05:07:03.153Z,993.90
2018-02-22T05:08:03.433Z,993.87
2018-02-22T05:09:03.755Z,993.87
2018-02-22T05:10:04.060Z,993.85
2018-02-22T05:11:04.365Z,993.87
2018-02-22T05:12:04.669Z,993.83
2018-02-22T05:13:04.978Z,993.83
2018-02-22T05:14:05.327Z,993.86
2018-02-22T05:15:05.585Z,993.83
2018-02-22T05:16:05.889Z,993.85
2018-02-22T05:17:06.194Z,993.85
2018-02-22T05:18:06.507Z,993.86
2018-02-22T05:19:06.806Z,993.88
2018-02-22T05:20:07.119Z,993.91
2018-02-22T05:21:07.422Z,993.89
2018-02-22T05:22:07.712Z,993.90
2018-02-22T05:23:08.031Z,993.87
2018-02-22T05:24:08.334Z,993.87
2018-02-22T05:25:08.638Z,993.85
2018-02-22T05:26:08.948Z,993.90
2018-02-22T05:27:09.296Z,993.84
2018-02-22T05:28:09.551Z,993.83
2018-02-22T05:29:09.856Z,993.89
2018-02-22T05:30:10.162Z,993.80
2018-02-22T05:31:10.466Z,993.82
2018-02-22T05:32:10.770Z,993.83
2018-02-22T05:33:11.076Z,993.85
2018-02-22T05:34:11.414Z,993.82
2018-02-22T05:35:11.688Z,993.80
2018-02-22T05:36:11.989Z,993.85
2018-02-22T05:37:12.295Z,993.83
2018-02-22T05:38:12.599Z,993.84
2018-02-22T05:39:12.907Z,993.85
2018-02-22T05:40:13.209Z,993.86
2018-02-22T05:41:13.514Z,993.85
2018-02-22T05:42:13.814Z,993.83
2018-02-22T05:43:14.116Z,993.86
2018-02-22T05:44:14.421Z,993.86
2018-02-22T05:45:14.725Z,993.82
2018-02-22T05:46:15.028Z,993.85
2018-02-22T05:47:15.335Z,993.87
2018-02-22T05:48:15.640Z,993.90
2018-02-22T05:49:15.931Z,993.85
2018-02-22T05:50:16.248Z,993.91
2018-02-22T05:51:16.553Z,993.93
2018-02-22T05:52:16.858Z,993.92
2018-02-22T05:53:17.162Z,993.95
2018-02-22T05:54:17.466Z,993.97
2018-02-22T05:55:17.828Z,993.99
2018-02-22T05:56:18.075Z,994.03
2018-02-22T05:57:18.379Z,994.01
2018-02-22T05:58:18.684Z,993.96
2018-02-22T05:59:18.989Z,993.99
2018-02-22T06:00:19.293Z,993.99
2018-02-22T06:01:19.602Z,993.97
2018-02-22T06:02:19.902Z,993.97
2018-02-22T06:03:20.203Z,993.96
2018-02-22T06:04:20.513Z,993.95
2018-02-22T06:05:20.817Z,994.00
2018-02-22T06:06:21.115Z,993.98
2018-02-22T06:07:21.419Z,993.98
2018-02-22T06:08:21.724Z,993.98
2018-02-22T06:09:22.035Z,993.96
2018-02-22T06:10:22.324Z,993.99
2018-02-22T06:11:22.628Z,993.99
2018-02-22T06:12:22.933Z,993.98
2018-02-22T06:13:23.237Z,993.94
2018-02-22T06:14:23.542Z,993.98
2018-02-22T06:15:23.849Z,993.92
2018-02-22T06:16:24.998Z,993.97
2018-02-22T06:17:24.614Z,993.93
2018-02-22T06:18:24.920Z,993.94
2018-02-22T06:19:25.224Z,993.97
2018-02-22T06:20:25.544Z,993.99
2018-02-22T06:21:25.830Z,994.03
2018-02-22T06:22:26.134Z,994.04
2018-02-22T06:23:26.436Z,994.00
2018-02-22T06:24:26.748Z,994.03
2018-02-22T06:25:27.049Z,994.03
2018-02-22T06:26:27.357Z,994.06
2018-02-22T06:27:27.653Z,994.06
2018-02-22T06:28:27.956Z,994.04
2018-02-22T06:29:28.262Z,994.08
2018-02-22T06:30:28.567Z,994.04
2018-02-22T06:31:28.876Z,994.08
2018-02-22T06:32:29.179Z,994.07
2018-02-22T06:33:29.484Z,994.08
2018-02-22T06:34:29.789Z,994.10
2018-02-22T06:35:30.093Z,994.09
2018-02-22T06:36:30.444Z,994.10
2018-02-22T06:37:30.701Z,994.13
2018-02-22T06:38:31.906Z,994.11
2018-02-22T06:39:31.293Z,994.14
2018-02-22T06:40:31.624Z,994.17
2018-02-22T06:41:31.883Z,994.19
2018-02-22T06:42:32.181Z,994.21
2018-02-22T06:43:32.484Z,994.22
2018-02-22T06:44:32.788Z,994.24
2018-02-22T06:45:33.093Z,994.25
2018-02-22T06:46:33.398Z,994.22
2018-02-22T06:47:33.699Z,994.27
2018-02-22T06:48:33.996Z,994.26
2018-02-22T06:49:34.302Z,994.28
2018-02-22T06:50:34.605Z,994.26
2018-02-22T06:51:34.901Z,994.28
2018-02-22T06:52:35.218Z,994.30
2018-02-22T06:56:38.822Z,994.30
2018-02-22T06:57:39.127Z,994.31
2018-02-22T06:58:39.431Z,994.30
2018-02-22T06:59:39.735Z,994.26
2018-02-22T07:00:40.044Z,994.25
2018-02-22T07:01:40.344Z,994.29
2018-02-22T07:02:40.652Z,994.32
2018-02-22T07:03:40.949Z,994.34
2018-02-22T07:04:41.258Z,994.32
2018-02-22T07:05:41.560Z,994.33
2018-02-22T07:06:41.859Z,994.35
2018-02-22T07:07:42.170Z,994.35
2018-02-22T07:08:42.475Z,994.32
2018-02-22T07:09:42.765Z,994.32
2018-02-22T07:10:43.084Z,994.29
2018-02-22T07:11:43.388Z,994.34
2018-02-22T07:12:43.692Z,994.38
2018-02-22T07:13:43.998Z,994.35
2018-02-22T07:14:44.295Z,994.34
2018-02-22T07:15:44.591Z,994.36
2018-02-22T07:16:44.895Z,994.37
2018-02-22T07:17:45.199Z,994.35
2018-02-22T07:18:45.504Z,994.39
2018-02-22T07:19:45.809Z,994.36
2018-02-22T07:20:46.114Z,994.38
2018-02-22T07:21:46.406Z,994.38
2018-02-22T07:22:46.714Z,994.32
2018-02-22T07:23:47.018Z,994.33
2018-02-22T07:24:47.323Z,994.33
2018-02-22T07:25:47.628Z,994.30
2018-02-22T07:26:47.932Z,994.28
2018-02-22T07:27:48.235Z,994.32
2018-02-22T07:28:48.543Z,994.35
2018-02-22T07:29:48.844Z,994.31
2018-02-22T07:30:49.148Z,994.30
2018-02-22T07:31:49.452Z,994.31
2018-02-22T07:32:49.756Z,994.30
2018-02-22T07:33:50.061Z,994.35
2018-02-22T07:34:50.365Z,994.33
2018-02-22T07:35:50.668Z,994.35
2018-02-22T07:36:50.974Z,994.33
2018-02-22T07:37:51.277Z,994.32
2018-02-22T07:38:51.585Z,994.36
2018-02-22T07:39:51.887Z,994.34
2018-02-22T07:40:52.204Z,994.32
2018-02-22T07:41:52.494Z,994.32
2018-02-22T07:42:52.798Z,994.38
2018-02-22T07:43:53.101Z,994.40
2018-02-22T07:44:53.407Z,994.39
2018-02-22T07:45:53.711Z,994.37
2018-02-22T07:46:54.015Z,994.37
2018-02-22T07:47:54.324Z,994.38
2018-02-22T07:48:54.629Z,994.38
2018-02-22T07:49:54.926Z,994.34
2018-02-22T07:50:55.228Z,994.40
2018-02-22T07:51:55.518Z,994.41
2018-02-22T07:52:55.823Z,994.42
2018-02-22T07:53:56.116Z,994.47
2018-02-22T07:54:56.414Z,994.45
2018-02-22T07:55:56.718Z,994.45
2018-02-22T07:56:57.023Z,994.43
2018-02-22T07:57:57.337Z,994.46
2018-02-22T07:58:57.629Z,994.45
2018-02-22T07:59:57.934Z,994.43
2018-02-22T08:00:58.230Z,994.44
2018-02-22T08:01:58.535Z,994.43
2018-02-22T08:02:58.840Z,994.46
2018-02-22T08:03:59.146Z,994.48
2018-02-22T08:04:59.450Z,994.47
2018-02-22T08:05:59.757Z,994.45
2018-02-22T08:07:00.062Z,994.52
2018-02-22T08:08:00.362Z,994.51
2018-02-22T08:09:00.666Z,994.50
2018-02-22T08:10:00.973Z,994.46
2018-02-22T08:11:01.273Z,994.44
2018-02-22T08:12:01.578Z,994.48
2018-02-22T08:13:01.882Z,994.52
2018-02-22T08:14:02.197Z,994.46
2018-02-22T08:15:02.506Z,994.48
2018-02-22T08:16:02.805Z,994.45
2018-02-22T08:17:03.112Z,994.44
2018-02-22T08:18:03.414Z,994.46
2018-02-22T08:19:03.719Z,994.44
2018-02-22T08:20:04.023Z,994.40
2018-02-22T08:21:04.327Z,994.40
2018-02-22T08:22:04.631Z,994.42
2018-02-22T08:23:04.944Z,994.37
2018-02-22T08:24:05.241Z,994.39
2018-02-22T08:25:05.545Z,994.33
2018-02-22T08:26:05.841Z,994.32
2018-02-22T08:27:06.152Z,994.33
2018-02-22T08:28:06.456Z,994.28
2018-02-22T08:29:06.761Z,994.30
2018-02-22T08:30:07.066Z,994.29
2018-02-22T08:31:07.358Z,994.32
2018-02-22T08:32:07.658Z,994.29
2018-02-22T08:33:07.963Z,994.27
2018-02-22T08:34:08.268Z,994.26
2018-02-22T08:35:08.575Z,994.25
2018-02-22T08:36:08.878Z,994.27
2018-02-22T08:37:09.182Z,994.27
2018-02-22T08:38:09.487Z,994.19
2018-02-22T08:39:09.790Z,994.21
2018-02-22T08:40:10.095Z,994.23
2018-02-22T08:41:10.403Z,994.21
2018-02-22T08:42:10.703Z,994.24
2018-02-22T08:43:11.007Z,994.22
2018-02-22T08:44:11.310Z,994.22
2018-02-22T08:45:11.616Z,994.22
2018-02-22T08:46:11.923Z,994.24
2018-02-22T08:47:12.277Z,994.22
2018-02-22T08:48:12.542Z,994.16
2018-02-22T08:49:12.829Z,994.17
2018-02-22T08:50:13.121Z,994.19
2018-02-22T08:51:13.416Z,994.25
2018-02-22T08:52:13.725Z,994.25
2018-02-22T08:53:14.029Z,994.24
2018-02-22T08:54:14.333Z,994.29
2018-02-22T08:55:14.638Z,994.30
2018-02-22T08:56:14.942Z,994.25
2018-02-22T08:57:15.247Z,994.22
2018-02-22T08:58:15.552Z,994.30
2018-02-22T08:59:15.856Z,994.32
2018-02-22T09:00:16.164Z,994.26
2018-02-22T09:01:16.457Z,994.23
2018-02-22T09:02:16.773Z,994.28
2018-02-22T09:03:17.081Z,994.25
2018-02-22T09:04:17.381Z,994.20
2018-02-22T09:05:17.686Z,994.21
2018-02-22T09:06:18.006Z,994.25
2018-02-22T09:07:18.296Z,994.26
2018-02-22T09:08:18.596Z,994.29
2018-02-22T09:09:18.901Z,994.28
2018-02-22T09:10:19.206Z,994.32
2018-02-22T09:11:19.497Z,994.29
2018-02-22T09:12:19.813Z,994.27
2018-02-22T09:13:20.119Z,994.38
2018-02-22T09:14:20.420Z,994.34
2018-02-22T09:15:20.726Z,994.34
2018-02-22T09:16:21.031Z,994.37
2018-02-22T09:17:21.333Z,994.34
2018-02-22T09:18:21.639Z,994.39
2018-02-22T09:19:21.942Z,994.40
2018-02-22T09:20:22.247Z,994.39
2018-02-22T09:21:22.551Z,994.34
2018-02-22T09:22:22.856Z,994.40
2018-02-22T09:23:23.152Z,994.39
2018-02-22T09:24:23.455Z,994.38
2018-02-22T09:25:23.759Z,994.42
2018-02-22T09:26:24.064Z,994.35
2018-02-22T09:27:24.928Z,994.37
2018-02-22T09:28:24.773Z,994.37
2018-02-22T09:29:25.079Z,994.32
2018-02-22T09:30:25.380Z,994.32
2018-02-22T09:31:25.683Z,994.38
2018-02-22T09:32:25.993Z,994.36
2018-02-22T09:33:26.286Z,994.32
2018-02-22T09:34:26.591Z,994.35
2018-02-22T09:35:26.895Z,994.34
2018-02-22T09:36:27.246Z,994.33
2018-02-22T09:37:27.504Z,994.37
2018-02-22T09:38:27.808Z,994.39
2018-02-22T09:39:28.121Z,994.37
2018-02-22T09:40:28.419Z,994.45
2018-02-22T09:41:28.719Z,994.36
2018-02-22T09:42:29.025Z,994.34
2018-02-22T09:43:29.322Z,994.34
2018-02-22T09:44:29.626Z,994.37
2018-02-22T09:45:29.933Z,994.38
2018-02-22T09:46:30.240Z,994.36
2018-02-22T09:47:30.550Z,994.40
2018-02-22T09:48:30.836Z,994.37
2018-02-22T09:49:31.141Z,994.42
2018-02-22T09:50:31.515Z,994.45
2018-02-22T09:51:31.743Z,994.40
2018-02-22T09:52:32.060Z,994.39
2018-02-22T09:53:32.348Z,994.42
2018-02-22T09:54:32.647Z,994.39
2018-02-22T09:55:32.957Z,994.40
2018-02-22T09:56:33.262Z,994.42
2018-02-22T09:57:33.566Z,994.41
2018-02-22T09:58:33.871Z,994.47
2018-02-22T09:59:34.175Z,994.43
2018-02-22T10:00:34.480Z,994.42
2018-02-22T10:01:34.788Z,994.47
2018-02-22T10:02:35.090Z,994.43
2018-02-22T10:03:35.394Z,994.46
2018-02-22T10:04:35.699Z,994.47
2018-02-22T10:05:36.013Z,994.40
2018-02-22T10:06:36.311Z,994.41
2018-02-22T10:07:36.604Z,994.41
2018-02-22T10:08:36.906Z,994.47
2018-02-22T10:09:37.203Z,994.45
2018-02-22T10:10:37.517Z,994.41
2018-02-22T10:11:37.814Z,994.43
2018-02-22T10:12:38.121Z,994.46
2018-02-22T10:13:38.425Z,994.49
2018-02-22T10:14:38.731Z,994.38
2018-02-22T10:15:39.036Z,994.47
2018-02-22T10:16:39.802Z,994.45
2018-02-22T10:17:39.879Z,994.47
2018-02-22T10:18:40.363Z,994.50
2018-02-22T10:19:40.430Z,994.40
2018-02-22T10:20:40.879Z,994.47
2018-02-22T10:21:40.868Z,994.51
2018-02-22T10:22:41.164Z,994.37
2018-02-22T10:23:41.471Z,994.45
2018-02-22T10:24:41.775Z,994.52
2018-02-22T10:25:42.076Z,994.34
2018-02-22T10:26:42.389Z,994.44
2018-02-22T10:27:42.699Z,994.38
2018-02-22T10:28:43.196Z,994.42
2018-02-22T10:29:43.296Z,994.39
2018-02-22T10:30:43.601Z,994.39
2018-02-22T10:31:43.906Z,994.34
2018-02-22T10:32:44.218Z,994.29
2018-02-22T10:33:44.511Z,994.28
2018-02-22T10:34:44.814Z,994.29
2018-02-22T10:35:45.119Z,994.30
2018-02-22T10:36:45.423Z,994.32
2018-02-22T10:37:45.722Z,994.42
2018-02-22T10:38:46.035Z,994.30
2018-02-22T10:39:46.332Z,994.28
2018-02-22T10:40:46.634Z,994.36
2018-02-22T10:41:46.943Z,994.29
2018-02-22T10:42:47.248Z,994.30
2018-02-22T10:43:47.552Z,994.24
2018-02-22T10:44:48.074Z,994.19
2018-02-22T10:45:48.163Z,994.27
2018-02-22T10:46:48.471Z,994.24
2018-02-22T10:47:48.791Z,994.27
2018-02-22T10:48:49.080Z,994.33
2018-02-22T10:49:49.384Z,994.20
2018-02-22T10:50:49.688Z,994.23
2018-02-22T10:51:49.993Z,994.18
2018-02-22T10:52:50.293Z,994.26
2018-02-22T10:53:50.600Z,994.28
2018-02-22T10:54:50.935Z,994.30
2018-02-22T10:55:51.211Z,994.25
2018-02-22T10:56:51.518Z,994.29
2018-02-22T10:57:51.823Z,994.30
2018-02-22T10:58:52.128Z,994.27
2018-02-22T10:59:52.433Z,994.23
2018-02-22T11:00:52.726Z,994.24
2018-02-22T11:01:53.044Z,994.15
2018-02-22T11:02:53.347Z,994.18
2018-02-22T11:03:53.654Z,994.22
2018-02-22T11:04:53.958Z,994.22
2018-02-22T11:05:54.262Z,994.10
2018-02-22T11:06:54.567Z,994.24
2018-02-22T11:07:54.875Z,994.19
2018-02-22T11:08:55.178Z,994.19
2018-02-22T11:09:55.473Z,994.24
2018-02-22T11:10:55.778Z,994.15
2018-02-22T11:11:56.082Z,994.10
2018-02-22T11:12:56.388Z,994.09
2018-02-22T11:13:56.692Z,994.09
2018-02-22T11:14:56.997Z,994.10
2018-02-22T11:15:57.302Z,994.02
2018-02-22T11:16:57.606Z,994.05
2018-02-22T11:17:57.910Z,994.02
2018-02-22T11:18:58.206Z,994.03
2018-02-22T11:19:58.775Z,994.09
2018-02-22T11:20:58.817Z,994.11
2018-02-22T11:21:59.123Z,994.03
2018-02-22T11:22:59.437Z,994.04
2018-02-22T11:23:59.729Z,994.08
2018-02-22T11:25:00.044Z,994.02
2018-02-22T11:26:00.343Z,994.02
2018-02-22T11:27:00.648Z,994.05
2018-02-22T11:28:00.965Z,994.04
2018-02-22T11:29:01.254Z,993.93
2018-02-22T11:30:01.560Z,994.04
2018-02-22T11:31:01.865Z,994.00
2018-02-22T11:32:02.170Z,993.97
2018-02-22T11:33:02.475Z,993.95
2018-02-22T11:34:02.772Z,993.99
2018-02-22T11:35:03.081Z,993.98
2018-02-22T11:36:03.384Z,994.01
2018-02-22T11:37:03.687Z,994.01
2018-02-22T11:38:03.991Z,993.97
2018-02-22T11:39:04.296Z,993.99
2018-02-22T11:40:04.603Z,994.03
2018-02-22T11:41:04.911Z,994.04
2018-02-22T11:42:05.211Z,994.06
2018-02-22T11:43:05.515Z,994.10
2018-02-22T11:44:05.851Z,994.11
2018-02-22T11:45:06.133Z,994.04
2018-02-22T11:46:06.428Z,994.07
2018-02-22T11:47:06.733Z,993.99
2018-02-22T11:48:07.038Z,993.98
2018-02-22T11:49:07.347Z,993.99
2018-02-22T11:50:07.664Z,993.99
2018-02-22T11:51:07.950Z,993.99
2018-02-22T11:52:08.257Z,993.90
2018-02-22T11:53:08.560Z,993.94
2018-02-22T11:54:08.865Z,993.97
2018-02-22T11:55:09.171Z,993.94
2018-02-22T11:56:09.475Z,993.91
2018-02-22T11:57:09.781Z,993.89
2018-02-22T11:58:10.086Z,993.87
2018-02-22T11:59:10.382Z,993.92
2018-02-22T12:00:10.672Z,993.85
2018-02-22T12:01:10.985Z,993.82
2018-02-22T12:02:11.280Z,993.86
2018-02-22T12:03:11.586Z,993.81
2018-02-22T12:04:11.891Z,993.75
2018-02-22T12:05:12.195Z,993.74
2018-02-22T12:06:12.499Z,993.67
2018-02-22T12:07:12.808Z,993.74
2018-02-22T12:08:13.109Z,993.75
2018-02-22T12:09:13.412Z,993.75
2018-02-22T12:10:13.720Z,993.75
2018-02-22T12:11:14.022Z,993.75
2018-02-22T12:12:14.331Z,993.75
2018-02-22T12:13:14.642Z,993.78
2018-02-22T12:14:14.933Z,993.74
2018-02-22T12:15:15.239Z,993.84
2018-02-22T12:16:15.544Z,993.72
2018-02-22T12:17:15.848Z,993.79
2018-02-22T12:18:16.161Z,993.82
2018-02-22T12:19:16.454Z,993.79
2018-02-22T12:20:16.741Z,993.81
2018-02-22T12:21:17.062Z,993.79
2018-02-22T12:22:17.367Z,993.79
2018-02-22T12:23:17.668Z,993.77
2018-02-22T12:24:17.976Z,993.74
2018-02-22T12:25:18.264Z,993.69
2018-02-22T12:26:18.585Z,993.70
2018-02-22T12:27:18.890Z,993.70
2018-02-22T12:28:19.195Z,993.72
2018-02-22T12:29:19.512Z,993.72
2018-02-22T12:30:19.861Z,993.71
2018-02-22T12:31:20.107Z,993.69
2018-02-22T12:32:20.412Z,993.63
2018-02-22T12:33:20.716Z,993.62
2018-02-22T12:34:21.021Z,993.65
2018-02-22T12:35:21.329Z,993.73
2018-02-22T12:36:21.631Z,993.67
2018-02-22T12:37:21.938Z,993.63
2018-02-22T12:38:22.243Z,993.70